createdAt,value
2018-04-02T00:00:56.479Z,3.70
2018-04-02T00:03:24.854Z,3.60
2018-04-02T00:05:53.271Z,3.50
2018-04-02T00:08:21.613Z,3.40
2018-04-02T00:10:50.168Z,3.40
2018-04-02T00:13:18.625Z,3.30
2018-04-02T00:15:46.950Z,3.20
2018-04-02T00:18:16.073Z,3.10
2018-04-02T00:20:44.431Z,3.10
2018-04-02T00:23:13.591Z,3.00
2018-04-02T00:25:41.945Z,2.90
2018-04-02T00:28:10.301Z,2.90
2018-04-02T00:30:38.927Z,2.90
2018-04-02T00:33:07.321Z,2.90
2018-04-02T00:35:35.645Z,2.80
2018-04-02T00:38:05.368Z,2.80
2018-04-02T00:40:34.470Z,2.80
2018-04-02T00:43:03.580Z,2.90
2018-04-02T00:45:31.912Z,2.80
2018-04-02T00:48:00.304Z,2.90
2018-04-02T00:50:28.713Z,2.90
2018-04-02T00:52:57.824Z,2.90
2018-04-02T00:55:26.193Z,2.90
2018-04-02T00:57:54.588Z,2.90
2018-04-02T01:00:22.928Z,2.90
2018-04-02T01:02:51.263Z,3.00
2018-04-02T01:05:19.632Z,3.00
2018-04-02T01:07:47.965Z,3.00
2018-04-02T01:10:17.039Z,3.00
2018-04-02T01:12:45.345Z,2.90
2018-04-02T01:15:13.675Z,3.00
2018-04-02T01:17:41.986Z,3.00
2018-04-02T01:20:10.353Z,3.00
2018-04-02T01:22:38.691Z,3.00
2018-04-02T01:25:07.039Z,3.00
2018-04-02T01:27:35.404Z,3.10
2018-04-02T01:30:03.818Z,3.10
2018-04-02T01:32:32.907Z,3.20
2018-04-02T01:35:01.287Z,3.20
2018-04-02T01:37:29.685Z,3.20
2018-04-02T01:39:58.873Z,3.30
2018-04-02T01:42:27.289Z,3.30
2018-04-02T01:44:56.439Z,3.40
2018-04-02T01:47:24.813Z,3.30
2018-04-02T01:49:53.212Z,3.40
2018-04-02T01:52:21.619Z,3.60
2018-04-02T01:54:49.936Z,3.60
2018-04-02T01:57:19.052Z,3.80
2018-04-02T01:59:47.425Z,3.80
2018-04-02T02:02:16.547Z,3.90
2018-04-02T02:04:44.918Z,3.90
2018-04-02T02:07:13.273Z,3.90
2018-04-02T02:09:42.368Z,3.90
2018-04-02T02:12:11.496Z,3.80
2018-04-02T02:14:39.804Z,3.80
2018-04-02T02:17:08.221Z,3.80
2018-04-02T02:19:36.630Z,3.70
2018-04-02T02:22:05.753Z,3.70
2018-04-02T02:24:34.095Z,3.70
2018-04-02T02:27:02.496Z,3.80
2018-04-02T02:29:30.870Z,3.80
2018-04-02T02:32:00.064Z,3.90
2018-04-02T02:34:29.175Z,3.90
2018-04-02T02:36:59.403Z,4.00
2018-04-02T02:39:27.762Z,4.00
2018-04-02T02:41:56.138Z,4.00
2018-04-02T02:44:26.065Z,4.00
2018-04-02T02:46:54.462Z,4.00
2018-04-02T02:49:22.867Z,4.10
2018-04-02T02:51:51.186Z,4.10
2018-04-02T02:54:20.357Z,4.20
2018-04-02T02:56:48.729Z,4.20
2018-04-02T02:59:17.074Z,4.20
2018-04-02T03:01:45.415Z,4.30
2018-04-02T03:04:13.787Z,4.30
2018-04-02T03:06:42.212Z,4.30
2018-04-02T03:09:10.561Z,4.40
2018-04-02T03:11:38.937Z,4.40
2018-04-02T03:14:07.354Z,4.40
2018-04-02T03:16:35.742Z,4.40
2018-04-02T03:19:04.904Z,4.50
2018-04-02T03:21:34.082Z,4.50
2018-04-02T03:24:02.463Z,4.50
2018-04-02T03:26:30.834Z,4.50
2018-04-02T03:28:59.209Z,4.50
2018-04-02T03:31:27.579Z,4.50
2018-04-02T03:33:56.730Z,4.60
2018-04-02T03:36:25.101Z,4.60
2018-04-02T03:38:53.536Z,4.60
2018-04-02T03:41:22.676Z,4.60
2018-04-02T03:43:51.108Z,4.60
2018-04-02T03:46:19.482Z,4.60
2018-04-02T03:48:47.865Z,4.60
2018-04-02T03:51:16.474Z,4.60
2018-04-02T03:53:44.894Z,4.70
2018-04-02T03:56:13.251Z,4.60
2018-04-02T03:58:42.358Z,4.70
2018-04-02T04:01:11.498Z,4.70
2018-04-02T04:03:39.858Z,4.70
2018-04-02T04:06:08.242Z,4.60
2018-04-02T04:08:37.482Z,4.60
2018-04-02T04:11:05.888Z,4.60
2018-04-02T04:13:34.246Z,4.60
2018-04-02T04:16:02.562Z,4.60
2018-04-02T04:18:31.678Z,4.60
2018-04-02T04:21:00.102Z,4.60
2018-04-02T04:23:28.465Z,4.60
2018-04-02T04:25:57.617Z,4.60
2018-04-02T04:28:26.842Z,4.50
2018-04-02T04:30:55.272Z,4.50
2018-04-02T04:33:23.674Z,4.50
2018-04-02T04:35:51.997Z,4.50
2018-04-02T04:38:20.322Z,4.50
2018-04-02T04:40:48.784Z,4.60
2018-04-02T04:43:17.183Z,4.60
2018-04-02T04:45:46.361Z,4.60
2018-04-02T04:48:14.712Z,4.60
2018-04-02T04:50:43.799Z,4.60
2018-04-02T04:53:12.977Z,4.70
2018-04-02T04:55:41.355Z,4.70
2018-04-02T04:58:09.778Z,4.70
2018-04-02T05:00:38.152Z,4.70
2018-04-02T05:03:07.269Z,4.70
2018-04-02T05:05:35.737Z,4.70
2018-04-02T05:08:04.897Z,4.80
2018-04-02T05:10:33.268Z,4.70
2018-04-02T05:13:01.650Z,4.80
2018-04-02T05:15:30.068Z,4.80
2018-04-02T05:17:58.498Z,4.80
2018-04-02T05:20:26.922Z,4.80
2018-04-02T05:22:56.788Z,4.80
2018-04-02T05:25:25.171Z,4.80
2018-04-02T05:27:53.529Z,4.80
2018-04-02T05:30:21.954Z,4.90
2018-04-02T05:32:50.271Z,4.90
2018-04-02T05:35:18.649Z,4.90
2018-04-02T05:37:47.021Z,4.90
2018-04-02T05:40:15.396Z,4.90
2018-04-02T05:42:43.772Z,4.90
2018-04-02T05:45:12.128Z,4.90
2018-04-02T05:47:40.541Z,4.90
2018-04-02T05:50:09.672Z,4.90
2018-04-02T05:52:38.067Z,4.90
2018-04-02T05:55:06.412Z,4.90
2018-04-02T05:57:34.741Z,4.90
2018-04-02T06:00:03.113Z,4.90
2018-04-02T06:02:32.278Z,5.00
2018-04-02T06:05:00.606Z,4.90
2018-04-02T06:07:29.735Z,5.00
2018-04-02T06:09:58.583Z,5.00
2018-04-02T06:12:27.701Z,5.00
2018-04-02T06:14:56.115Z,5.00
2018-04-02T06:17:24.509Z,5.00
2018-04-02T06:19:53.578Z,5.10
2018-04-02T06:22:22.038Z,5.10
2018-04-02T06:24:51.451Z,5.20
2018-04-02T06:27:19.781Z,5.20
2018-04-02T06:29:48.259Z,5.20
2018-04-02T06:32:16.637Z,5.20
2018-04-02T06:34:45.728Z,5.30
2018-04-02T06:37:14.142Z,5.30
2018-04-02T06:39:42.580Z,5.30
2018-04-02T06:42:10.960Z,5.40
2018-04-02T06:44:39.371Z,5.50
2018-04-02T06:47:07.688Z,5.60
2018-04-02T06:49:36.779Z,5.90
2018-04-02T06:52:05.133Z,5.90
2018-04-02T06:54:33.471Z,6.00
2018-04-02T06:57:02.551Z,6.20
2018-04-02T06:59:30.852Z,6.20
2018-04-02T07:01:59.201Z,6.30
2018-04-02T07:04:27.541Z,6.40
2018-04-02T07:06:55.907Z,6.40
2018-04-02T07:09:24.231Z,6.50
2018-04-02T07:11:52.568Z,6.60
2018-04-02T07:14:20.895Z,6.70
2018-04-02T07:16:49.203Z,6.80
2018-04-02T07:19:18.272Z,6.90
2018-04-02T07:21:46.598Z,6.90
2018-04-02T07:24:14.910Z,7.00
2018-04-02T07:26:43.279Z,7.20
2018-04-02T07:29:11.655Z,7.20
2018-04-02T07:31:39.955Z,7.30
2018-04-02T07:34:08.269Z,7.30
2018-04-02T07:36:36.596Z,7.40
2018-04-02T07:39:05.787Z,7.40
2018-04-02T07:41:34.134Z,7.50
2018-04-02T07:44:02.573Z,7.60
2018-04-02T07:46:30.877Z,7.80
2018-04-02T07:48:59.227Z,7.90
2018-04-02T07:51:27.581Z,8.00
2018-04-02T07:53:55.946Z,8.20
2018-04-02T07:56:24.279Z,8.40
2018-04-02T07:58:52.642Z,8.50
2018-04-02T08:01:20.997Z,8.60
2018-04-02T08:03:49.406Z,8.70
2018-04-02T08:06:17.783Z,8.90
2018-04-02T08:08:46.229Z,9.20
2018-04-02T08:11:14.549Z,9.40
2018-04-02T08:13:56.850Z,9.80
2018-04-02T08:16:25.191Z,9.80
2018-04-02T08:18:53.564Z,10.20
2018-04-02T08:21:31.297Z,10.30
2018-04-02T08:24:01.436Z,10.50
2018-04-02T08:26:32.661Z,10.90
2018-04-02T08:29:04.802Z,11.20
2018-04-02T08:31:33.373Z,11.60
2018-04-02T08:34:03.378Z,11.80
2018-04-02T08:36:36.926Z,11.90
2018-04-02T08:39:14.063Z,12.10
2018-04-02T08:41:42.848Z,12.20
2018-04-02T08:44:11.191Z,12.50
2018-04-02T08:46:40.795Z,12.90
2018-04-02T08:49:09.111Z,12.90
2018-04-02T08:51:37.863Z,13.00
2018-04-02T08:54:06.229Z,13.00
2018-04-02T08:56:34.599Z,13.00
2018-04-02T08:59:02.932Z,12.90
2018-04-02T09:01:32.129Z,12.60
2018-04-02T09:04:00.471Z,12.60
2018-04-02T09:06:28.800Z,12.30
2018-04-02T09:08:57.890Z,11.70
2018-04-02T09:11:27.087Z,11.50
2018-04-02T09:13:56.183Z,11.30
2018-04-02T09:16:25.266Z,11.20
2018-04-02T09:18:53.732Z,11.20
2018-04-02T09:21:22.051Z,11.10
2018-04-02T09:23:51.139Z,11.10
2018-04-02T09:26:20.233Z,11.10
2018-04-02T09:28:48.709Z,11.10
2018-04-02T09:31:17.033Z,11.20
2018-04-02T09:33:45.404Z,11.50
2018-04-02T09:36:13.717Z,11.80
2018-04-02T09:38:42.079Z,12.20
2018-04-02T09:41:10.420Z,12.40
2018-04-02T09:43:38.739Z,12.60
2018-04-02T09:46:07.039Z,12.80
2018-04-02T09:48:35.383Z,13.00
2018-04-02T09:51:04.477Z,13.20
2018-04-02T09:53:33.602Z,13.20
2018-04-02T09:56:02.555Z,13.20
2018-04-02T09:58:30.872Z,13.20
2018-04-02T10:01:00.974Z,13.20
2018-04-02T10:03:35.685Z,13.10
2018-04-02T10:06:04.031Z,13.10
2018-04-02T10:08:32.375Z,13.00
2018-04-02T10:11:01.444Z,13.00
2018-04-02T10:13:30.539Z,12.90
2018-04-02T10:18:34.202Z,12.80
2018-04-02T10:21:02.523Z,12.80
2018-04-02T10:23:30.901Z,12.80
2018-04-02T10:26:00.000Z,12.70
2018-04-02T10:28:28.484Z,12.70
2018-04-02T10:30:57.257Z,12.90
2018-04-02T10:33:25.651Z,13.10
2018-04-02T10:35:54.057Z,13.30
2018-04-02T10:38:24.145Z,13.40
2018-04-02T10:40:52.532Z,13.40
2018-04-02T10:43:20.939Z,13.40
2018-04-02T10:45:49.253Z,13.40
2018-04-02T10:48:19.197Z,13.40
2018-04-02T10:50:47.573Z,13.40
2018-04-02T10:53:15.901Z,13.40
2018-04-02T10:55:44.245Z,13.30
2018-04-02T10:58:12.587Z,13.20
2018-04-02T11:00:41.655Z,13.20
2018-04-02T11:03:10.016Z,13.10
2018-04-02T11:05:38.386Z,13.00
2018-04-02T11:08:07.459Z,12.90
2018-04-02T11:10:36.534Z,12.90
2018-04-02T11:13:04.859Z,12.90
2018-04-02T11:15:33.578Z,13.00
2018-04-02T11:18:01.941Z,13.10
2018-04-02T11:20:31.003Z,13.30
2018-04-02T11:23:00.161Z,13.40
2018-04-02T11:25:28.484Z,13.40
2018-04-02T11:27:57.584Z,14.00
2018-04-02T11:30:26.023Z,13.90
2018-04-02T11:33:00.737Z,14.20
2018-04-02T11:35:29.125Z,14.50
2018-04-02T11:37:57.446Z,14.80
2018-04-02T11:40:26.749Z,15.10
2018-04-02T11:42:55.130Z,15.10
2018-04-02T11:45:23.445Z,15.20
2018-04-02T11:47:51.788Z,15.40
2018-04-02T11:50:20.115Z,15.60
2018-04-02T11:52:48.447Z,15.80
2018-04-02T11:55:16.786Z,15.90
2018-04-02T11:57:45.131Z,16.10
2018-04-02T12:00:14.219Z,16.40
2018-04-02T12:02:42.752Z,16.40
2018-04-02T12:05:11.069Z,16.50
2018-04-02T12:07:39.480Z,16.50
2018-04-02T12:10:08.582Z,16.60
2018-04-02T12:12:37.711Z,16.70
2018-04-02T12:15:06.085Z,16.60
2018-04-02T12:17:34.417Z,16.80
2018-04-02T12:20:02.819Z,16.80
2018-04-02T12:22:31.896Z,16.80
2018-04-02T12:25:00.247Z,16.80
2018-04-02T12:27:28.597Z,16.70
2018-04-02T12:29:57.045Z,16.60
2018-04-02T12:32:25.481Z,16.40
2018-04-02T12:34:53.798Z,16.20
2018-04-02T12:37:22.145Z,16.00
2018-04-02T12:39:51.726Z,15.40
2018-04-02T12:42:21.327Z,15.30
2018-04-02T12:44:50.423Z,15.10
2018-04-02T12:47:19.521Z,14.90
2018-04-02T12:49:47.835Z,14.90
2018-04-02T12:52:16.152Z,14.80
2018-04-02T12:54:44.463Z,14.70
2018-04-02T12:57:12.793Z,14.60
2018-04-02T12:59:41.139Z,14.60
2018-04-02T13:02:10.225Z,14.50
2018-04-02T13:04:38.587Z,14.40
2018-04-02T13:07:06.891Z,14.40
2018-04-02T13:09:35.251Z,14.30
2018-04-02T13:12:03.622Z,14.20
2018-04-02T13:14:31.916Z,14.10
2018-04-02T13:17:00.238Z,14.20
2018-04-02T13:19:29.329Z,14.50
2018-04-02T13:21:58.403Z,14.50
2018-04-02T13:24:26.735Z,14.50
2018-04-02T13:26:55.054Z,14.60
2018-04-02T13:29:23.361Z,14.80
2018-04-02T13:31:52.470Z,15.20
2018-04-02T13:34:21.623Z,15.40
2018-04-02T13:36:49.960Z,15.40
2018-04-02T13:39:18.294Z,15.60
2018-04-02T13:41:46.640Z,15.70
2018-04-02T13:44:14.995Z,15.80
2018-04-02T13:46:43.320Z,16.10
2018-04-02T13:49:11.655Z,16.20
2018-04-02T13:51:39.984Z,16.30
2018-04-02T13:54:08.317Z,16.30
2018-04-02T13:56:37.396Z,16.60
2018-04-02T13:59:05.703Z,16.60
2018-04-02T14:01:34.798Z,17.30
2018-04-02T14:04:03.887Z,17.80
2018-04-02T14:06:32.960Z,18.20
2018-04-02T14:09:01.323Z,18.20
2018-04-02T14:11:30.417Z,19.30
2018-04-02T14:13:58.774Z,19.30
2018-04-02T14:16:27.105Z,19.50
2018-04-02T14:18:55.473Z,19.80
2018-04-02T14:21:23.796Z,19.90
